sensor_id;sensor_type;location;lat;lon;timestamp;P1;durP1;ratioP1;P2;durP2;ratioP2
38683;SDS011;24910;53.248;-6.134;2022-12-07T00:01:48;24.10;;;9.83;;
38683;SDS011;24910;53.248;-6.134;2022-12-07T00:04:17;21.38;;;10.07;;
38683;SDS011;24910;53.248;-6.134;2022-12-07T00:06:49;27.00;;;10.50;;
38683;SDS011;24910;53.248;-6.134;2022-12-07T00:09:20;23.63;;;10.48;;
38683;SDS011;24910;53.248;-6.134;2022-12-07T00:11:49;25.15;;;10.07;;
38683;SDS011;24910;53.248;-6.134;2022-12-07T00:14:20;23.50;;;8.97;;
38683;SDS011;24910;53.248;-6.134;2022-12-07T00:16:50;18.85;;;7.75;;
38683;SDS011;24910;53.248;-6.134;2022-12-07T00:19:20;17.02;;;7.90;;
38683;SDS011;24910;53.248;-6.134;2022-12-07T00:21:49;18.38;;;9.05;;
38683;SDS011;24910;53.248;-6.134;2022-12-07T00:24:18;21.95;;;8.75;;
38683;SDS011;24910;53.248;-6.134;2022-12-07T00:26:48;20.73;;;8.35;;
38683;SDS011;24910;53.248;-6.134;2022-12-07T00:29:17;21.38;;;7.63;;
38683;SDS011;24910;53.248;-6.134;2022-12-07T00:31:50;20.85;;;7.75;;
38683;SDS011;24910;53.248;-6.134;2022-12-07T00:34:19;18.20;;;8.27;;
38683;SDS011;24910;53.248;-6.134;2022-12-07T00:36:49;17.17;;;7.20;;
38683;SDS011;24910;53.248;-6.134;2022-12-07T00:39:18;17.17;;;6.82;;
38683;SDS011;24910;53.248;-6.134;2022-12-07T00:41:47;18.77;;;6.10;;
38683;SDS011;24910;53.248;-6.134;2022-12-07T00:44:16;16.30;;;6.75;;
38683;SDS011;24910;53.248;-6.134;2022-12-07T00:46:45;17.17;;;6.70;;
38683;SDS011;24910;53.248;-6.134;2022-12-07T00:49:16;16.67;;;5.70;;
38683;SDS011;24910;53.248;-6.134;2022-12-07T00:51:45;12.70;;;5.03;;
38683;SDS011;24910;53.248;-6.134;2022-12-07T00:54:16;15.35;;;6.15;;
38683;SDS011;24910;53.248;-6.134;2022-12-07T00:56:45;19.83;;;7.13;;
38683;SDS011;24910;53.248;-6.134;2022-12-07T00:59:14;20.65;;;8.35;;
38683;SDS011;24910;53.248;-6.134;2022-12-07T01:01:43;19.75;;;8.23;;
38683;SDS011;24910;53.248;-6.134;2022-12-07T01:04:12;16.88;;;7.28;;
38683;SDS011;24910;53.248;-6.134;2022-12-07T01:06:43;15.23;;;7.65;;
38683;SDS011;24910;53.248;-6.134;2022-12-07T01:09:12;20.88;;;7.63;;
38683;SDS011;24910;53.248;-6.134;2022-12-07T01:11:41;18.75;;;7.55;;
38683;SDS011;24910;53.248;-6.134;2022-12-07T01:14:10;21.27;;;7.65;;
38683;SDS011;24910;53.248;-6.134;2022-12-07T01:16:39;20.58;;;7.25;;
38683;SDS011;24910;53.248;-6.134;2022-12-07T01:19:08;19.50;;;7.85;;
38683;SDS011;24910;53.248;-6.134;2022-12-07T01:21:37;20.98;;;9.23;;
38683;SDS011;24910;53.248;-6.134;2022-12-07T01:24:09;17.10;;;7.57;;
38683;SDS011;24910;53.248;-6.134;2022-12-07T01:26:39;17.98;;;6.30;;
38683;SDS011;24910;53.248;-6.134;2022-12-07T01:29:08;14.68;;;5.15;;
38683;SDS011;24910;53.248;-6.134;2022-12-07T01:31:37;19.13;;;5.57;;
38683;SDS011;24910;53.248;-6.134;2022-12-07T01:34:06;18.30;;;6.25;;
38683;SDS011;24910;53.248;-6.134;2022-12-07T01:36:36;17.83;;;7.15;;
38683;SDS011;24910;53.248;-6.134;2022-12-07T01:39:06;19.10;;;7.40;;
38683;SDS011;24910;53.248;-6.134;2022-12-07T01:41:38;20.50;;;8.15;;
38683;SDS011;24910;53.248;-6.134;2022-12-07T01:44:23;17.52;;;8.13;;
38683;SDS011;24910;53.248;-6.134;2022-12-07T01:46:54;19.17;;;7.07;;
38683;SDS011;24910;53.248;-6.134;2022-12-07T01:49:26;20.65;;;7.82;;
38683;SDS011;24910;53.248;-6.134;2022-12-07T01:52:01;23.95;;;7.15;;
38683;SDS011;24910;53.248;-6.134;2022-12-07T01:54:40;19.80;;;7.32;;
38683;SDS011;24910;53.248;-6.134;2022-12-07T01:57:10;16.40;;;6.95;;
38683;SDS011;24910;53.248;-6.134;2022-12-07T01:59:40;16.10;;;6.75;;
38683;SDS011;24910;53.248;-6.134;2022-12-07T02:02:12;22.02;;;6.72;;
38683;SDS011;24910;53.248;-6.134;2022-12-07T02:04:46;17.67;;;6.72;;
38683;SDS011;24910;53.248;-6.134;2022-12-07T02:07:15;15.20;;;6.55;;
38683;SDS011;24910;53.248;-6.134;2022-12-07T02:09:45;18.52;;;7.00;;
38683;SDS011;24910;53.248;-6.134;2022-12-07T02:12:14;16.08;;;6.47;;
38683;SDS011;24910;53.248;-6.134;2022-12-07T02:14:44;13.95;;;6.10;;
38683;SDS011;24910;53.248;-6.134;2022-12-07T02:17:14;20.20;;;6.40;;
38683;SDS011;24910;53.248;-6.134;2022-12-07T02:23:00;14.35;;;6.18;;
38683;SDS011;24910;53.248;-6.134;2022-12-07T02:28:59;13.68;;;6.07;;
38683;SDS011;24910;53.248;-6.134;2022-12-07T02:31:52;12.60;;;5.97;;
38683;SDS011;24910;53.248;-6.134;2022-12-07T02:34:27;11.25;;;5.22;;
38683;SDS011;24910;53.248;-6.134;2022-12-07T02:37:01;10.65;;;5.18;;
38683;SDS011;24910;53.248;-6.134;2022-12-07T02:39:39;12.23;;;5.68;;
38683;SDS011;24910;53.248;-6.134;2022-12-07T02:42:13;12.63;;;5.05;;
38683;SDS011;24910;53.248;-6.134;2022-12-07T02:44:46;14.00;;;5.40;;
38683;SDS011;24910;53.248;-6.134;2022-12-07T02:47:16;11.70;;;5.47;;
38683;SDS011;24910;53.248;-6.134;2022-12-07T02:49:47;15.90;;;5.43;;
38683;SDS011;24910;53.248;-6.134;2022-12-07T02:52:18;13.48;;;4.55;;
38683;SDS011;24910;53.248;-6.134;2022-12-07T02:54:47;10.05;;;4.65;;
38683;SDS011;24910;53.248;-6.134;2022-12-07T02:57:21;11.30;;;4.50;;
38683;SDS011;24910;53.248;-6.134;2022-12-07T03:00:04;11.02;;;4.47;;
38683;SDS011;24910;53.248;-6.134;2022-12-07T03:02:38;10.35;;;4.30;;
38683;SDS011;24910;53.248;-6.134;2022-12-07T03:05:20;12.32;;;4.20;;
38683;SDS011;24910;53.248;-6.134;2022-12-07T03:08:13;14.07;;;4.40;;
38683;SDS011;24910;53.248;-6.134;2022-12-07T03:10:50;13.10;;;4.10;;
38683;SDS011;24910;53.248;-6.134;2022-12-07T03:13:28;9.35;;;4.07;;
38683;SDS011;24910;53.248;-6.134;2022-12-07T03:16:02;13.02;;;4.25;;
38683;SDS011;24910;53.248;-6.134;2022-12-07T03:18:37;12.27;;;4.00;;
38683;SDS011;24910;53.248;-6.134;2022-12-07T03:21:11;11.00;;;4.10;;
38683;SDS011;24910;53.248;-6.134;2022-12-07T03:23:45;11.05;;;4.38;;
38683;SDS011;24910;53.248;-6.134;2022-12-07T03:26:17;11.70;;;3.97;;
38683;SDS011;24910;53.248;-6.134;2022-12-07T03:28:50;13.05;;;4.22;;
38683;SDS011;24910;53.248;-6.134;2022-12-07T03:31:26;11.90;;;3.95;;
38683;SDS011;24910;53.248;-6.134;2022-12-07T03:33:59;10.93;;;4.07;;
38683;SDS011;24910;53.248;-6.134;2022-12-07T03:36:35;9.38;;;3.80;;
38683;SDS011;24910;53.248;-6.134;2022-12-07T03:39:13;11.45;;;3.88;;
38683;SDS011;24910;53.248;-6.134;2022-12-07T03:41:50;10.85;;;4.07;;
38683;SDS011;24910;53.248;-6.134;2022-12-07T03:44:21;10.23;;;3.83;;
38683;SDS011;24910;53.248;-6.134;2022-12-07T03:46:54;9.05;;;3.90;;
38683;SDS011;24910;53.248;-6.134;2022-12-07T03:49:30;14.82;;;4.22;;
38683;SDS011;24910;53.248;-6.134;2022-12-07T03:52:07;10.32;;;3.83;;
38683;SDS011;24910;53.248;-6.134;2022-12-07T03:54:41;12.02;;;4.40;;
38683;SDS011;24910;53.248;-6.134;2022-12-07T03:57:16;14.00;;;4.20;;
38683;SDS011;24910;53.248;-6.134;2022-12-07T03:59:46;13.87;;;4.60;;
38683;SDS011;24910;53.248;-6.134;2022-12-07T04:02:17;13.00;;;4.60;;
38683;SDS011;24910;53.248;-6.134;2022-12-07T04:04:48;14.73;;;4.35;;
38683;SDS011;24910;53.248;-6.134;2022-12-07T04:07:17;10.10;;;4.43;;
38683;SDS011;24910;53.248;-6.134;2022-12-07T04:09:46;9.88;;;4.75;;
38683;SDS011;24910;53.248;-6.134;2022-12-07T04:12:15;16.40;;;5.10;;
38683;SDS011;24910;53.248;-6.134;2022-12-07T04:14:44;10.23;;;4.68;;
38683;SDS011;24910;53.248;-6.134;2022-12-07T04:17:13;9.15;;;4.60;;
38683;SDS011;24910;53.248;-6.134;2022-12-07T04:19:43;10.75;;;4.53;;
38683;SDS011;24910;53.248;-6.134;2022-12-07T04:22:12;10.35;;;4.45;;
38683;SDS011;24910;53.248;-6.134;2022-12-07T04:24:41;11.73;;;4.18;;
38683;SDS011;24910;53.248;-6.134;2022-12-07T04:27:10;14.77;;;4.68;;
38683;SDS011;24910;53.248;-6.134;2022-12-07T04:29:39;12.40;;;4.25;;
38683;SDS011;24910;53.248;-6.134;2022-12-07T04:32:08;11.40;;;4.45;;
38683;SDS011;24910;53.248;-6.134;2022-12-07T04:34:37;10.63;;;4.28;;
38683;SDS011;24910;53.248;-6.134;2022-12-07T04:37:08;11.25;;;4.57;;
38683;SDS011;24910;53.248;-6.134;2022-12-07T04:39:37;11.53;;;4.50;;
38683;SDS011;24910;53.248;-6.134;2022-12-07T04:42:06;12.35;;;5.00;;
38683;SDS011;24910;53.248;-6.134;2022-12-07T04:44:35;12.15;;;4.30;;
38683;SDS011;24910;53.248;-6.134;2022-12-07T04:47:04;11.32;;;4.40;;
38683;SDS011;24910;53.248;-6.134;2022-12-07T04:49:34;14.45;;;5.18;;
38683;SDS011;24910;53.248;-6.134;2022-12-07T04:52:03;13.27;;;4.80;;
38683;SDS011;24910;53.248;-6.134;2022-12-07T04:54:33;9.80;;;4.80;;
38683;SDS011;24910;53.248;-6.134;2022-12-07T04:57:02;10.93;;;4.45;;
38683;SDS011;24910;53.248;-6.134;2022-12-07T04:59:31;11.88;;;4.70;;
38683;SDS011;24910;53.248;-6.134;2022-12-07T05:02:00;13.02;;;4.78;;
38683;SDS011;24910;53.248;-6.134;2022-12-07T05:04:30;10.85;;;4.45;;
38683;SDS011;24910;53.248;-6.134;2022-12-07T05:06:59;11.95;;;4.03;;
38683;SDS011;24910;53.248;-6.134;2022-12-07T05:09:28;11.30;;;3.97;;
38683;SDS011;24910;53.248;-6.134;2022-12-07T05:11:58;11.10;;;4.05;;
38683;SDS011;24910;53.248;-6.134;2022-12-07T05:14:29;11.38;;;4.13;;
38683;SDS011;24910;53.248;-6.134;2022-12-07T05:16:58;9.32;;;4.22;;
38683;SDS011;24910;53.248;-6.134;2022-12-07T05:19:28;12.32;;;4.05;;
38683;SDS011;24910;53.248;-6.134;2022-12-07T05:21:57;12.77;;;4.32;;
38683;SDS011;24910;53.248;-6.134;2022-12-07T05:24:26;13.18;;;4.07;;
38683;SDS011;24910;53.248;-6.134;2022-12-07T05:26:55;14.55;;;3.95;;
38683;SDS011;24910;53.248;-6.134;2022-12-07T05:29:26;10.88;;;4.18;;
38683;SDS011;24910;53.248;-6.134;2022-12-07T05:31:55;12.20;;;4.35;;
38683;SDS011;24910;53.248;-6.134;2022-12-07T05:34:24;10.18;;;4.10;;
38683;SDS011;24910;53.248;-6.134;2022-12-07T05:36:53;13.00;;;4.20;;
38683;SDS011;24910;53.248;-6.134;2022-12-07T05:39:22;12.35;;;4.63;;
38683;SDS011;24910;53.248;-6.134;2022-12-07T05:41:53;15.50;;;4.72;;
38683;SDS011;24910;53.248;-6.134;2022-12-07T05:44:42;10.60;;;4.60;;
38683;SDS011;24910;53.248;-6.134;2022-12-07T05:47:12;13.60;;;4.70;;
38683;SDS011;24910;53.248;-6.134;2022-12-07T05:49:42;12.77;;;4.80;;
38683;SDS011;24910;53.248;-6.134;2022-12-07T05:52:11;14.60;;;4.82;;
38683;SDS011;24910;53.248;-6.134;2022-12-07T05:54:41;12.43;;;4.88;;
38683;SDS011;24910;53.248;-6.134;2022-12-07T05:57:10;13.77;;;4.88;;
38683;SDS011;24910;53.248;-6.134;2022-12-07T05:59:44;12.63;;;4.57;;
38683;SDS011;24910;53.248;-6.134;2022-12-07T06:02:12;10.70;;;4.75;;
38683;SDS011;24910;53.248;-6.134;2022-12-07T06:04:42;11.70;;;4.25;;
38683;SDS011;24910;53.248;-6.134;2022-12-07T06:07:14;12.65;;;4.30;;
38683;SDS011;24910;53.248;-6.134;2022-12-07T06:09:44;13.90;;;4.75;;
38683;SDS011;24910;53.248;-6.134;2022-12-07T06:12:13;11.73;;;4.70;;
38683;SDS011;24910;53.248;-6.134;2022-12-07T06:15:01;10.95;;;4.30;;
38683;SDS011;24910;53.248;-6.134;2022-12-07T06:17:30;13.32;;;4.47;;
38683;SDS011;24910;53.248;-6.134;2022-12-07T06:19:59;13.15;;;4.28;;
38683;SDS011;24910;53.248;-6.134;2022-12-07T06:22:29;13.70;;;4.50;;
38683;SDS011;24910;53.248;-6.134;2022-12-07T06:24:58;11.30;;;4.38;;
38683;SDS011;24910;53.248;-6.134;2022-12-07T06:27:34;10.65;;;4.40;;
38683;SDS011;24910;53.248;-6.134;2022-12-07T06:30:05;14.05;;;4.57;;
38683;SDS011;24910;53.248;-6.134;2022-12-07T06:32:36;10.68;;;4.40;;
38683;SDS011;24910;53.248;-6.134;2022-12-07T06:35:05;9.00;;;3.67;;
38683;SDS011;24910;53.248;-6.134;2022-12-07T06:37:35;12.27;;;4.03;;
38683;SDS011;24910;53.248;-6.134;2022-12-07T06:40:04;8.02;;;3.83;;
38683;SDS011;24910;53.248;-6.134;2022-12-07T06:42:34;12.95;;;4.45;;
38683;SDS011;24910;53.248;-6.134;2022-12-07T06:45:05;9.07;;;4.05;;
38683;SDS011;24910;53.248;-6.134;2022-12-07T06:47:34;8.27;;;4.00;;
38683;SDS011;24910;53.248;-6.134;2022-12-07T06:50:08;8.52;;;4.03;;
38683;SDS011;24910;53.248;-6.134;2022-12-07T06:52:37;11.20;;;3.70;;
38683;SDS011;24910;53.248;-6.134;2022-12-07T06:55:07;10.95;;;4.07;;
38683;SDS011;24910;53.248;-6.134;2022-12-07T06:57:36;12.75;;;4.32;;
38683;SDS011;24910;53.248;-6.134;2022-12-07T07:00:07;11.13;;;4.10;;
38683;SDS011;24910;53.248;-6.134;2022-12-07T07:02:37;9.45;;;4.05;;
38683;SDS011;24910;53.248;-6.134;2022-12-07T07:05:06;10.55;;;4.28;;
38683;SDS011;24910;53.248;-6.134;2022-12-07T07:07:35;12.75;;;4.00;;
38683;SDS011;24910;53.248;-6.134;2022-12-07T07:10:24;9.95;;;3.70;;
38683;SDS011;24910;53.248;-6.134;2022-12-07T07:12:53;9.32;;;3.50;;
38683;SDS011;24910;53.248;-6.134;2022-12-07T07:15:25;9.60;;;3.57;;
38683;SDS011;24910;53.248;-6.134;2022-12-07T07:17:54;8.23;;;3.70;;
38683;SDS011;24910;53.248;-6.134;2022-12-07T07:20:23;11.38;;;3.72;;
38683;SDS011;24910;53.248;-6.134;2022-12-07T07:22:53;11.40;;;3.40;;
38683;SDS011;24910;53.248;-6.134;2022-12-07T07:25:23;7.20;;;3.80;;
38683;SDS011;24910;53.248;-6.134;2022-12-07T07:27:52;10.82;;;3.88;;
38683;SDS011;24910;53.248;-6.134;2022-12-07T07:30:21;10.45;;;3.55;;
38683;SDS011;24910;53.248;-6.134;2022-12-07T07:32:52;8.05;;;3.65;;
38683;SDS011;24910;53.248;-6.134;2022-12-07T07:35:24;8.95;;;3.58;;
38683;SDS011;24910;53.248;-6.134;2022-12-07T07:37:54;8.13;;;3.45;;
38683;SDS011;24910;53.248;-6.134;2022-12-07T07:40:23;9.70;;;3.42;;
38683;SDS011;24910;53.248;-6.134;2022-12-07T07:42:53;10.10;;;3.40;;
38683;SDS011;24910;53.248;-6.134;2022-12-07T07:45:23;11.82;;;3.70;;
38683;SDS011;24910;53.248;-6.134;2022-12-07T07:47:56;11.60;;;3.90;;
38683;SDS011;24910;53.248;-6.134;2022-12-07T07:50:29;13.75;;;4.00;;
38683;SDS011;24910;53.248;-6.134;2022-12-07T07:52:58;10.05;;;4.20;;
38683;SDS011;24910;53.248;-6.134;2022-12-07T07:55:28;9.38;;;3.10;;
38683;SDS011;24910;53.248;-6.134;2022-12-07T07:57:57;12.07;;;3.60;;
38683;SDS011;24910;53.248;-6.134;2022-12-07T08:00:26;10.50;;;3.90;;
38683;SDS011;24910;53.248;-6.134;2022-12-07T08:02:57;9.93;;;3.65;;
38683;SDS011;24910;53.248;-6.134;2022-12-07T08:05:26;10.50;;;3.60;;
38683;SDS011;24910;53.248;-6.134;2022-12-07T08:07:55;7.80;;;3.30;;
38683;SDS011;24910;53.248;-6.134;2022-12-07T08:10:26;10.30;;;3.80;;
38683;SDS011;24910;53.248;-6.134;2022-12-07T08:12:55;8.98;;;3.50;;
38683;SDS011;24910;53.248;-6.134;2022-12-07T08:15:41;11.18;;;4.03;;
38683;SDS011;24910;53.248;-6.134;2022-12-07T08:18:14;10.02;;;3.83;;
38683;SDS011;24910;53.248;-6.134;2022-12-07T08:20:43;10.75;;;3.78;;
38683;SDS011;24910;53.248;-6.134;2022-12-07T08:23:12;10.45;;;3.70;;
38683;SDS011;24910;53.248;-6.134;2022-12-07T08:25:41;13.05;;;4.20;;
38683;SDS011;24910;53.248;-6.134;2022-12-07T08:28:10;10.82;;;4.43;;
38683;SDS011;24910;53.248;-6.134;2022-12-07T08:30:39;10.18;;;4.57;;
38683;SDS011;24910;53.248;-6.134;2022-12-07T08:33:08;10.63;;;3.95;;
38683;SDS011;24910;53.248;-6.134;2022-12-07T08:35:39;8.32;;;3.75;;
38683;SDS011;24910;53.248;-6.134;2022-12-07T08:38:08;10.45;;;3.75;;
38683;SDS011;24910;53.248;-6.134;2022-12-07T08:40:39;11.88;;;4.13;;
38683;SDS011;24910;53.248;-6.134;2022-12-07T08:43:08;10.65;;;4.00;;
38683;SDS011;24910;53.248;-6.134;2022-12-07T08:45:37;14.82;;;4.05;;
38683;SDS011;24910;53.248;-6.134;2022-12-07T08:48:09;12.30;;;4.40;;
38683;SDS011;24910;53.248;-6.134;2022-12-07T08:50:43;10.90;;;4.13;;
38683;SDS011;24910;53.248;-6.134;2022-12-07T08:53:16;12.40;;;4.00;;
38683;SDS011;24910;53.248;-6.134;2022-12-07T08:55:45;11.38;;;3.97;;
38683;SDS011;24910;53.248;-6.134;2022-12-07T08:58:15;11.70;;;4.20;;
38683;SDS011;24910;53.248;-6.134;2022-12-07T09:00:45;10.98;;;3.80;;
38683;SDS011;24910;53.248;-6.134;2022-12-07T09:03:14;12.05;;;3.80;;
38683;SDS011;24910;53.248;-6.134;2022-12-07T09:05:44;9.35;;;3.78;;
38683;SDS011;24910;53.248;-6.134;2022-12-07T09:08:13;9.65;;;3.97;;
38683;SDS011;24910;53.248;-6.134;2022-12-07T09:10:43;13.13;;;4.00;;
38683;SDS011;24910;53.248;-6.134;2022-12-07T09:13:12;7.47;;;4.10;;
38683;SDS011;24910;53.248;-6.134;2022-12-07T09:15:41;12.65;;;4.07;;
38683;SDS011;24910;53.248;-6.134;2022-12-07T09:18:10;12.73;;;3.83;;
38683;SDS011;24910;53.248;-6.134;2022-12-07T09:20:39;8.73;;;3.40;;
38683;SDS011;24910;53.248;-6.134;2022-12-07T09:23:10;13.32;;;3.92;;
38683;SDS011;24910;53.248;-6.134;2022-12-07T09:25:39;10.17;;;4.17;;
38683;SDS011;24910;53.248;-6.134;2022-12-07T09:28:08;13.80;;;4.07;;
38683;SDS011;24910;53.248;-6.134;2022-12-07T09:30:37;10.18;;;3.90;;
38683;SDS011;24910;53.248;-6.134;2022-12-07T09:33:26;6.05;;;3.63;;
38683;SDS011;24910;53.248;-6.134;2022-12-07T09:35:55;10.27;;;3.88;;
38683;SDS011;24910;53.248;-6.134;2022-12-07T09:38:26;9.75;;;4.20;;
38683;SDS011;24910;53.248;-6.134;2022-12-07T09:40:57;12.95;;;3.95;;
38683;SDS011;24910;53.248;-6.134;2022-12-07T09:43:32;15.23;;;4.05;;
38683;SDS011;24910;53.248;-6.134;2022-12-07T09:46:04;9.43;;;3.95;;
38683;SDS011;24910;53.248;-6.134;2022-12-07T09:48:34;10.35;;;4.82;;
38683;SDS011;24910;53.248;-6.134;2022-12-07T09:51:10;10.25;;;4.40;;
38683;SDS011;24910;53.248;-6.134;2022-12-07T09:53:52;9.50;;;3.28;;
38683;SDS011;24910;53.248;-6.134;2022-12-07T09:56:23;8.35;;;3.13;;
38683;SDS011;24910;53.248;-6.134;2022-12-07T09:58:54;7.53;;;3.10;;
38683;SDS011;24910;53.248;-6.134;2022-12-07T10:01:28;7.47;;;3.58;;
38683;SDS011;24910;53.248;-6.134;2022-12-07T10:04:00;11.27;;;3.30;;
38683;SDS011;24910;53.248;-6.134;2022-12-07T10:06:37;8.57;;;3.33;;
38683;SDS011;24910;53.248;-6.134;2022-12-07T10:09:12;7.63;;;2.95;;
38683;SDS011;24910;53.248;-6.134;2022-12-07T10:11:58;7.20;;;3.50;;
38683;SDS011;24910;53.248;-6.134;2022-12-07T10:14:29;9.30;;;3.45;;
38683;SDS011;24910;53.248;-6.134;2022-12-07T10:20:18;8.63;;;3.10;;
38683;SDS011;24910;53.248;-6.134;2022-12-07T10:22:59;9.65;;;3.50;;
38683;SDS011;24910;53.248;-6.134;2022-12-07T10:25:31;9.75;;;3.42;;
38683;SDS011;24910;53.248;-6.134;2022-12-07T10:28:03;8.93;;;2.95;;
38683;SDS011;24910;53.248;-6.134;2022-12-07T10:30:54;9.82;;;3.03;;
38683;SDS011;24910;53.248;-6.134;2022-12-07T10:33:31;8.27;;;3.70;;
38683;SDS011;24910;53.248;-6.134;2022-12-07T10:36:16;8.63;;;3.47;;
38683;SDS011;24910;53.248;-6.134;2022-12-07T10:38:48;9.10;;;3.53;;
38683;SDS011;24910;53.248;-6.134;2022-12-07T10:41:19;7.32;;;3.40;;
38683;SDS011;24910;53.248;-6.134;2022-12-07T10:43:49;10.40;;;3.43;;
38683;SDS011;24910;53.248;-6.134;2022-12-07T10:49:32;9.45;;;3.20;;
38683;SDS011;24910;53.248;-6.134;2022-12-07T10:52:18;10.07;;;4.10;;
38683;SDS011;24910;53.248;-6.134;2022-12-07T10:55:05;10.57;;;4.00;;
38683;SDS011;24910;53.248;-6.134;2022-12-07T10:57:45;9.88;;;4.32;;
38683;SDS011;24910;53.248;-6.134;2022-12-07T11:00:22;12.07;;;4.70;;
38683;SDS011;24910;53.248;-6.134;2022-12-07T11:06:04;11.88;;;4.80;;
38683;SDS011;24910;53.248;-6.134;2022-12-07T11:08:46;10.93;;;4.05;;
38683;SDS011;24910;53.248;-6.134;2022-12-07T11:11:24;8.55;;;4.30;;
38683;SDS011;24910;53.248;-6.134;2022-12-07T11:14:01;7.88;;;3.47;;
38683;SDS011;24910;53.248;-6.134;2022-12-07T11:16:45;9.52;;;3.42;;
38683;SDS011;24910;53.248;-6.134;2022-12-07T11:19:29;8.18;;;3.38;;
38683;SDS011;24910;53.248;-6.134;2022-12-07T11:22:09;11.15;;;3.03;;
38683;SDS011;24910;53.248;-6.134;2022-12-07T11:24:45;7.57;;;3.17;;
38683;SDS011;24910;53.248;-6.134;2022-12-07T11:27:24;9.82;;;3.08;;
38683;SDS011;24910;53.248;-6.134;2022-12-07T11:30:10;9.35;;;2.85;;
38683;SDS011;24910;53.248;-6.134;2022-12-07T11:32:48;5.50;;;2.85;;
38683;SDS011;24910;53.248;-6.134;2022-12-07T11:35:23;5.75;;;2.70;;
38683;SDS011;24910;53.248;-6.134;2022-12-07T11:38:07;8.55;;;3.40;;
38683;SDS011;24910;53.248;-6.134;2022-12-07T11:40:40;5.93;;;2.63;;
38683;SDS011;24910;53.248;-6.134;2022-12-07T11:43:15;6.68;;;2.40;;
38683;SDS011;24910;53.248;-6.134;2022-12-07T11:45:54;5.60;;;2.75;;
38683;SDS011;24910;53.248;-6.134;2022-12-07T11:48:31;6.07;;;2.85;;
38683;SDS011;24910;53.248;-6.134;2022-12-07T11:51:03;7.72;;;3.03;;
38683;SDS011;24910;53.248;-6.134;2022-12-07T11:53:38;5.13;;;2.45;;
38683;SDS011;24910;53.248;-6.134;2022-12-07T11:56:13;5.90;;;3.13;;
38683;SDS011;24910;53.248;-6.134;2022-12-07T11:58:48;5.75;;;2.22;;
38683;SDS011;24910;53.248;-6.134;2022-12-07T12:01:25;10.63;;;2.72;;
38683;SDS011;24910;53.248;-6.134;2022-12-07T12:04:06;6.63;;;2.40;;
38683;SDS011;24910;53.248;-6.134;2022-12-07T12:06:51;8.80;;;2.53;;
38683;SDS011;24910;53.248;-6.134;2022-12-07T12:09:21;6.38;;;2.30;;
38683;SDS011;24910;53.248;-6.134;2022-12-07T12:12:29;8.00;;;2.70;;
38683;SDS011;24910;53.248;-6.134;2022-12-07T12:15:44;7.88;;;2.80;;
38683;SDS011;24910;53.248;-6.134;2022-12-07T12:18:28;6.55;;;2.60;;
38683;SDS011;24910;53.248;-6.134;2022-12-07T12:21:16;8.05;;;3.42;;
38683;SDS011;24910;53.248;-6.134;2022-12-07T12:23:48;10.48;;;3.25;;
38683;SDS011;24910;53.248;-6.134;2022-12-07T12:26:23;5.85;;;2.50;;
38683;SDS011;24910;53.248;-6.134;2022-12-07T12:28:55;7.95;;;2.95;;
38683;SDS011;24910;53.248;-6.134;2022-12-07T12:31:37;10.15;;;2.67;;
38683;SDS011;24910;53.248;-6.134;2022-12-07T12:46:38;6.00;;;2.45;;
38683;SDS011;24910;53.248;-6.134;2022-12-07T12:55:21;6.30;;;2.47;;
38683;SDS011;24910;53.248;-6.134;2022-12-07T13:04:17;7.00;;;2.60;;
38683;SDS011;24910;53.248;-6.134;2022-12-07T13:06:53;12.07;;;2.92;;
38683;SDS011;24910;53.248;-6.134;2022-12-07T13:09:23;7.10;;;2.53;;
38683;SDS011;24910;53.248;-6.134;2022-12-07T13:11:56;8.73;;;2.70;;
38683;SDS011;24910;53.248;-6.134;2022-12-07T13:14:39;6.20;;;2.88;;
38683;SDS011;24910;53.248;-6.134;2022-12-07T13:17:11;9.82;;;2.90;;
38683;SDS011;24910;53.248;-6.134;2022-12-07T13:20:04;9.82;;;2.83;;
38683;SDS011;24910;53.248;-6.134;2022-12-07T13:22:50;9.40;;;2.97;;
38683;SDS011;24910;53.248;-6.134;2022-12-07T13:25:22;14.55;;;3.10;;
38683;SDS011;24910;53.248;-6.134;2022-12-07T13:28:01;8.75;;;2.70;;
38683;SDS011;24910;53.248;-6.134;2022-12-07T13:30:39;12.98;;;3.60;;
38683;SDS011;24910;53.248;-6.134;2022-12-07T13:33:13;12.00;;;3.78;;
38683;SDS011;24910;53.248;-6.134;2022-12-07T13:35:46;11.55;;;3.80;;
38683;SDS011;24910;53.248;-6.134;2022-12-07T13:38:19;11.68;;;4.10;;
38683;SDS011;24910;53.248;-6.134;2022-12-07T13:41:02;8.05;;;3.28;;
38683;SDS011;24910;53.248;-6.134;2022-12-07T13:43:42;7.43;;;3.30;;
38683;SDS011;24910;53.248;-6.134;2022-12-07T13:46:12;8.70;;;3.20;;
38683;SDS011;24910;53.248;-6.134;2022-12-07T13:48:46;7.95;;;3.30;;
38683;SDS011;24910;53.248;-6.134;2022-12-07T13:51:18;8.55;;;2.97;;
38683;SDS011;24910;53.248;-6.134;2022-12-07T13:53:50;7.47;;;3.85;;
38683;SDS011;24910;53.248;-6.134;2022-12-07T13:56:21;11.20;;;3.85;;
38683;SDS011;24910;53.248;-6.134;2022-12-07T13:58:53;9.82;;;3.40;;
38683;SDS011;24910;53.248;-6.134;2022-12-07T14:01:22;15.15;;;4.85;;
38683;SDS011;24910;53.248;-6.134;2022-12-07T14:03:53;9.07;;;4.57;;
38683;SDS011;24910;53.248;-6.134;2022-12-07T14:06:24;12.18;;;4.78;;
38683;SDS011;24910;53.248;-6.134;2022-12-07T14:09:08;9.98;;;4.70;;
38683;SDS011;24910;53.248;-6.134;2022-12-07T14:11:44;16.42;;;4.70;;
38683;SDS011;24910;53.248;-6.134;2022-12-07T14:14:15;11.50;;;4.63;;
38683;SDS011;24910;53.248;-6.134;2022-12-07T14:16:55;9.90;;;4.22;;
38683;SDS011;24910;53.248;-6.134;2022-12-07T14:19:41;12.13;;;4.55;;
38683;SDS011;24910;53.248;-6.134;2022-12-07T14:22:24;9.65;;;4.40;;
38683;SDS011;24910;53.248;-6.134;2022-12-07T14:24:58;11.52;;;4.88;;
38683;SDS011;24910;53.248;-6.134;2022-12-07T14:27:30;13.32;;;4.68;;
38683;SDS011;24910;53.248;-6.134;2022-12-07T14:30:02;12.32;;;5.03;;
38683;SDS011;24910;53.248;-6.134;2022-12-07T14:32:32;13.40;;;5.20;;
38683;SDS011;24910;53.248;-6.134;2022-12-07T14:35:08;13.60;;;4.57;;
38683;SDS011;24910;53.248;-6.134;2022-12-07T14:37:40;15.25;;;4.53;;
38683;SDS011;24910;53.248;-6.134;2022-12-07T14:40:12;9.50;;;4.75;;
38683;SDS011;24910;53.248;-6.134;2022-12-07T14:42:43;12.98;;;4.82;;
38683;SDS011;24910;53.248;-6.134;2022-12-07T14:45:15;17.33;;;5.00;;
38683;SDS011;24910;53.248;-6.134;2022-12-07T14:50:35;10.88;;;4.68;;
38683;SDS011;24910;53.248;-6.134;2022-12-07T14:53:29;10.48;;;4.47;;
38683;SDS011;24910;53.248;-6.134;2022-12-07T14:56:01;15.27;;;4.75;;
38683;SDS011;24910;53.248;-6.134;2022-12-07T14:58:32;12.07;;;5.45;;
38683;SDS011;24910;53.248;-6.134;2022-12-07T15:01:01;13.45;;;4.88;;
38683;SDS011;24910;53.248;-6.134;2022-12-07T15:03:30;7.80;;;4.40;;
38683;SDS011;24910;53.248;-6.134;2022-12-07T15:06:01;10.65;;;3.85;;
38683;SDS011;24910;53.248;-6.134;2022-12-07T15:08:33;8.55;;;3.92;;
38683;SDS011;24910;53.248;-6.134;2022-12-07T15:11:02;8.77;;;4.07;;
38683;SDS011;24910;53.248;-6.134;2022-12-07T15:13:31;9.10;;;3.85;;
38683;SDS011;24910;53.248;-6.134;2022-12-07T15:16:19;9.27;;;3.75;;
38683;SDS011;24910;53.248;-6.134;2022-12-07T15:18:49;10.25;;;4.55;;
38683;SDS011;24910;53.248;-6.134;2022-12-07T15:21:39;11.40;;;4.03;;
38683;SDS011;24910;53.248;-6.134;2022-12-07T15:24:11;10.93;;;4.15;;
38683;SDS011;24910;53.248;-6.134;2022-12-07T15:26:40;10.50;;;4.43;;
38683;SDS011;24910;53.248;-6.134;2022-12-07T15:29:09;9.65;;;4.63;;
38683;SDS011;24910;53.248;-6.134;2022-12-07T15:31:48;13.55;;;5.18;;
38683;SDS011;24910;53.248;-6.134;2022-12-07T15:34:24;10.52;;;4.60;;
38683;SDS011;24910;53.248;-6.134;2022-12-07T15:36:59;9.82;;;5.05;;
38683;SDS011;24910;53.248;-6.134;2022-12-07T15:39:29;9.32;;;4.57;;
38683;SDS011;24910;53.248;-6.134;2022-12-07T15:41:58;9.77;;;5.63;;
38683;SDS011;24910;53.248;-6.134;2022-12-07T15:44:27;12.27;;;5.82;;